Florence, Wisconsin
Current Conditions -  °F | °C
As of 6:54 AM on Saturday 22 Nov 2014 (Local Time) from KIMT Reporting Station
Overcast Overcast  
Wind Chill: 27°   Ceiling: 1400
Heat Index: 33°   Visibility: 8mi
Dew Point: 27°   Wind: 7mph
Humidity: 78%   Direction: 220°SW
Pressure: 29.77"   Gusts: NA
Location:  45.92°N, 88.25°W
Report Text: KIMT 221254Z AUTO 22006KT 8SM OVC014 01/M03 A2977 RMK AO2 SLP098 T00061028
Loading
Personal Weather Stations






























Interactive Weather Map New forecast layout! Learn more

10-Day Weather Forecast

Advertisements
Track Severe Weather on mobile